sensor_id;sensor_type;location;lat;lon;timestamp;pressure;altitude;pressure_sealevel;temperature;humidity
22000;BME280;11164;48.818;2.322;2023-03-15T00:00:20;100673.25;;;9.43;37.34
22000;BME280;11164;48.818;2.322;2023-03-15T00:02:45;100678.81;;;9.41;37.52
22000;BME280;11164;48.818;2.322;2023-03-15T00:05:11;100677.41;;;9.45;37.51
22000;BME280;11164;48.818;2.322;2023-03-15T00:07:37;100671.56;;;9.42;37.65
22000;BME280;11164;48.818;2.322;2023-03-15T00:10:03;100677.41;;;9.45;37.43
22000;BME280;11164;48.818;2.322;2023-03-15T00:12:28;100669.03;;;9.55;37.16
22000;BME280;11164;48.818;2.322;2023-03-15T00:14:53;100675.19;;;9.49;37.16
22000;BME280;11164;48.818;2.322;2023-03-15T00:17:19;100667.56;;;9.52;37.01
22000;BME280;11164;48.818;2.322;2023-03-15T00:19:47;100664.22;;;9.50;37.14
22000;BME280;11164;48.818;2.322;2023-03-15T00:22:12;100675.22;;;9.34;37.60
22000;BME280;11164;48.818;2.322;2023-03-15T00:24:38;100682.25;;;9.20;38.04
22000;BME280;11164;48.818;2.322;2023-03-15T00:27:03;100676.25;;;9.18;37.79
22000;BME280;11164;48.818;2.322;2023-03-15T00:29:30;100671.69;;;9.18;37.50
22000;BME280;11164;48.818;2.322;2023-03-15T00:31:56;100684.31;;;9.18;37.83
22000;BME280;11164;48.818;2.322;2023-03-15T00:34:21;100686.81;;;9.19;37.75
22000;BME280;11164;48.818;2.322;2023-03-15T00:36:50;100684.50;;;9.31;37.80
22000;BME280;11164;48.818;2.322;2023-03-15T00:39:20;100676.41;;;9.31;37.60
22000;BME280;11164;48.818;2.322;2023-03-15T00:41:46;100681.31;;;9.28;37.70
22000;BME280;11164;48.818;2.322;2023-03-15T00:44:11;100681.81;;;9.16;37.93
22000;BME280;11164;48.818;2.322;2023-03-15T00:46:37;100680.97;;;9.16;37.97
22000;BME280;11164;48.818;2.322;2023-03-15T00:49:03;100688.69;;;9.04;38.28
22000;BME280;11164;48.818;2.322;2023-03-15T00:51:28;100698.13;;;8.85;38.71
22000;BME280;11164;48.818;2.322;2023-03-15T00:53:55;100698.09;;;8.70;38.76
22000;BME280;11164;48.818;2.322;2023-03-15T00:56:25;100698.56;;;8.74;38.77
22000;BME280;11164;48.818;2.322;2023-03-15T00:58:51;100698.09;;;8.70;38.50
22000;BME280;11164;48.818;2.322;2023-03-15T01:01:25;100699.94;;;8.55;38.71
22000;BME280;11164;48.818;2.322;2023-03-15T01:03:51;100694.47;;;8.48;38.75
22000;BME280;11164;48.818;2.322;2023-03-15T01:06:20;100707.00;;;8.56;38.70
22000;BME280;11164;48.818;2.322;2023-03-15T01:08:46;100707.34;;;8.38;38.92
22000;BME280;11164;48.818;2.322;2023-03-15T01:11:15;100710.84;;;8.38;39.18
22000;BME280;11164;48.818;2.322;2023-03-15T01:13:41;100703.63;;;8.39;39.12
22000;BME280;11164;48.818;2.322;2023-03-15T01:16:09;100709.16;;;8.37;38.84
22000;BME280;11164;48.818;2.322;2023-03-15T01:18:35;100708.34;;;8.37;39.03
22000;BME280;11164;48.818;2.322;2023-03-15T01:21:02;100712.16;;;8.42;38.96
22000;BME280;11164;48.818;2.322;2023-03-15T01:23:27;100711.03;;;8.37;38.85
22000;BME280;11164;48.818;2.322;2023-03-15T01:25:52;100711.94;;;8.29;38.98
22000;BME280;11164;48.818;2.322;2023-03-15T01:28:18;100712.19;;;8.19;39.00
22000;BME280;11164;48.818;2.322;2023-03-15T01:30:50;100716.97;;;8.09;39.49
22000;BME280;11164;48.818;2.322;2023-03-15T01:33:16;100711.09;;;8.05;39.52
22000;BME280;11164;48.818;2.322;2023-03-15T01:35:42;100713.97;;;8.04;39.51
22000;BME280;11164;48.818;2.322;2023-03-15T01:38:08;100714.81;;;8.04;39.22
22000;BME280;11164;48.818;2.322;2023-03-15T01:40:33;100718.19;;;8.21;38.98
22000;BME280;11164;48.818;2.322;2023-03-15T01:48:18;100714.53;;;8.37;39.01
22000;BME280;11164;48.818;2.322;2023-03-15T01:50:44;100718.09;;;8.38;38.62
22000;BME280;11164;48.818;2.322;2023-03-15T01:53:10;100716.56;;;8.35;38.51
22000;BME280;11164;48.818;2.322;2023-03-15T01:55:36;100724.91;;;8.26;38.75
22000;BME280;11164;48.818;2.322;2023-03-15T01:58:02;100722.44;;;8.16;39.18
22000;BME280;11164;48.818;2.322;2023-03-15T02:00:31;100725.38;;;8.06;39.54
22000;BME280;11164;48.818;2.322;2023-03-15T02:03:01;100722.38;;;8.01;39.16
22000;BME280;11164;48.818;2.322;2023-03-15T02:05:32;100729.72;;;8.07;41.99
22000;BME280;11164;48.818;2.322;2023-03-15T02:08:00;100724.47;;;7.91;39.62
22000;BME280;11164;48.818;2.322;2023-03-15T02:10:36;100713.59;;;7.84;39.76
22000;BME280;11164;48.818;2.322;2023-03-15T02:13:03;100718.59;;;7.87;39.68
22000;BME280;11164;48.818;2.322;2023-03-15T02:15:29;100721.03;;;8.05;39.35
22000;BME280;11164;48.818;2.322;2023-03-15T02:17:55;100715.56;;;8.13;38.95
22000;BME280;11164;48.818;2.322;2023-03-15T02:23:14;100709.50;;;8.19;39.03
22000;BME280;11164;48.818;2.322;2023-03-15T02:26:06;100712.22;;;7.88;39.96
22000;BME280;11164;48.818;2.322;2023-03-15T02:28:35;100705.84;;;7.89;39.71
22000;BME280;11164;48.818;2.322;2023-03-15T02:31:02;100706.66;;;7.98;39.34
22000;BME280;11164;48.818;2.322;2023-03-15T02:33:41;100705.63;;;7.99;39.16
22000;BME280;11164;48.818;2.322;2023-03-15T02:36:17;100704.22;;;8.03;39.43
22000;BME280;11164;48.818;2.322;2023-03-15T02:38:44;100709.13;;;7.99;39.40
22000;BME280;11164;48.818;2.322;2023-03-15T02:41:11;100708.47;;;7.97;39.23
22000;BME280;11164;48.818;2.322;2023-03-15T02:43:38;100708.00;;;7.94;39.42
22000;BME280;11164;48.818;2.322;2023-03-15T02:46:05;100708.00;;;7.85;39.83
22000;BME280;11164;48.818;2.322;2023-03-15T02:48:33;100697.69;;;7.74;39.91
22000;BME280;11164;48.818;2.322;2023-03-15T02:50:59;100703.81;;;7.28;41.26
22000;BME280;11164;48.818;2.322;2023-03-15T02:53:28;100701.47;;;7.34;40.89
22000;BME280;11164;48.818;2.322;2023-03-15T02:55:53;100709.41;;;7.50;40.92
22000;BME280;11164;48.818;2.322;2023-03-15T02:58:18;100702.84;;;7.53;40.56
22000;BME280;11164;48.818;2.322;2023-03-15T03:00:44;100708.78;;;7.71;40.33
22000;BME280;11164;48.818;2.322;2023-03-15T03:03:09;100706.72;;;7.81;40.25
22000;BME280;11164;48.818;2.322;2023-03-15T03:05:35;100701.22;;;7.75;40.26
22000;BME280;11164;48.818;2.322;2023-03-15T03:08:01;100713.09;;;7.80;40.19
22000;BME280;11164;48.818;2.322;2023-03-15T03:10:27;100716.72;;;7.96;39.45
22000;BME280;11164;48.818;2.322;2023-03-15T03:12:52;100727.09;;;7.67;40.12
22000;BME280;11164;48.818;2.322;2023-03-15T03:15:19;100726.78;;;7.62;40.42
22000;BME280;11164;48.818;2.322;2023-03-15T03:17:45;100725.84;;;7.78;40.20
22000;BME280;11164;48.818;2.322;2023-03-15T03:20:11;100722.75;;;7.98;39.60
22000;BME280;11164;48.818;2.322;2023-03-15T03:22:39;100725.50;;;7.81;40.04
22000;BME280;11164;48.818;2.322;2023-03-15T03:25:07;100730.44;;;8.01;39.76
22000;BME280;11164;48.818;2.322;2023-03-15T03:27:34;100734.81;;;8.02;40.02
22000;BME280;11164;48.818;2.322;2023-03-15T03:30:05;100739.03;;;7.65;40.40
22000;BME280;11164;48.818;2.322;2023-03-15T03:32:30;100737.78;;;7.44;41.06
22000;BME280;11164;48.818;2.322;2023-03-15T03:34:56;100738.13;;;7.41;40.70
22000;BME280;11164;48.818;2.322;2023-03-15T03:37:22;100737.38;;;7.56;40.40
22000;BME280;11164;48.818;2.322;2023-03-15T03:39:47;100740.78;;;7.49;40.45
22000;BME280;11164;48.818;2.322;2023-03-15T03:42:12;100747.31;;;7.47;40.41
22000;BME280;11164;48.818;2.322;2023-03-15T03:44:39;100740.16;;;7.39;40.60
22000;BME280;11164;48.818;2.322;2023-03-15T03:47:05;100731.97;;;7.64;40.26
22000;BME280;11164;48.818;2.322;2023-03-15T03:49:30;100737.34;;;7.64;40.26
22000;BME280;11164;48.818;2.322;2023-03-15T03:51:56;100734.44;;;7.74;40.13
22000;BME280;11164;48.818;2.322;2023-03-15T03:54:21;100748.16;;;7.47;40.43
22000;BME280;11164;48.818;2.322;2023-03-15T03:56:47;100733.97;;;7.39;40.61
22000;BME280;11164;48.818;2.322;2023-03-15T03:59:13;100735.63;;;7.31;40.81
22000;BME280;11164;48.818;2.322;2023-03-15T04:01:38;100743.16;;;7.44;40.66
22000;BME280;11164;48.818;2.322;2023-03-15T04:04:04;100745.19;;;7.34;41.15
22000;BME280;11164;48.818;2.322;2023-03-15T04:06:29;100752.50;;;7.48;40.52
22000;BME280;11164;48.818;2.322;2023-03-15T04:08:55;100750.41;;;7.67;40.01
22000;BME280;11164;48.818;2.322;2023-03-15T04:11:21;100756.13;;;7.64;40.34
22000;BME280;11164;48.818;2.322;2023-03-15T04:13:51;100758.44;;;7.75;39.98
22000;BME280;11164;48.818;2.322;2023-03-15T04:16:17;100757.75;;;7.73;39.86
22000;BME280;11164;48.818;2.322;2023-03-15T04:18:43;100750.16;;;7.85;40.17
22000;BME280;11164;48.818;2.322;2023-03-15T04:21:08;100758.91;;;7.79;39.78
22000;BME280;11164;48.818;2.322;2023-03-15T04:23:35;100754.84;;;7.83;39.82
22000;BME280;11164;48.818;2.322;2023-03-15T04:26:01;100751.31;;;7.91;39.65
22000;BME280;11164;48.818;2.322;2023-03-15T04:28:27;100758.72;;;7.80;39.78
22000;BME280;11164;48.818;2.322;2023-03-15T04:30:54;100750.41;;;7.67;40.18
22000;BME280;11164;48.818;2.322;2023-03-15T04:33:25;100745.59;;;7.54;40.98
22000;BME280;11164;48.818;2.322;2023-03-15T04:35:51;100748.13;;;7.56;40.88
22000;BME280;11164;48.818;2.322;2023-03-15T04:38:17;100748.47;;;7.53;40.98
22000;BME280;11164;48.818;2.322;2023-03-15T04:40:43;100742.75;;;7.87;39.89
22000;BME280;11164;48.818;2.322;2023-03-15T04:43:09;100749.06;;;8.02;39.90
22000;BME280;11164;48.818;2.322;2023-03-15T04:45:34;100752.28;;;7.98;39.84
22000;BME280;11164;48.818;2.322;2023-03-15T04:48:01;100752.03;;;8.08;39.53
22000;BME280;11164;48.818;2.322;2023-03-15T04:50:27;100752.22;;;8.06;39.48
22000;BME280;11164;48.818;2.322;2023-03-15T04:52:53;100758.63;;;8.05;39.63
22000;BME280;11164;48.818;2.322;2023-03-15T04:55:18;100763.03;;;7.90;39.65
22000;BME280;11164;48.818;2.322;2023-03-15T04:57:44;100767.97;;;7.78;39.96
22000;BME280;11164;48.818;2.322;2023-03-15T05:00:10;100759.44;;;7.74;39.75
22000;BME280;11164;48.818;2.322;2023-03-15T05:02:37;100760.81;;;7.70;39.93
22000;BME280;11164;48.818;2.322;2023-03-15T05:05:06;100757.91;;;7.40;40.45
22000;BME280;11164;48.818;2.322;2023-03-15T05:07:35;100766.69;;;7.26;40.95
22000;BME280;11164;48.818;2.322;2023-03-15T05:10:01;100773.75;;;7.19;40.87
22000;BME280;11164;48.818;2.322;2023-03-15T05:12:27;100774.38;;;7.29;40.61
22000;BME280;11164;48.818;2.322;2023-03-15T05:14:53;100782.09;;;7.32;40.53
22000;BME280;11164;48.818;2.322;2023-03-15T05:17:18;100774.84;;;7.41;40.36
22000;BME280;11164;48.818;2.322;2023-03-15T05:19:44;100782.34;;;7.54;40.05
22000;BME280;11164;48.818;2.322;2023-03-15T05:22:10;100786.00;;;7.61;39.87
22000;BME280;11164;48.818;2.322;2023-03-15T05:24:36;100776.47;;;7.58;39.95
22000;BME280;11164;48.818;2.322;2023-03-15T05:27:01;100790.97;;;7.33;40.71
22000;BME280;11164;48.818;2.322;2023-03-15T05:29:27;100783.91;;;7.31;40.79
22000;BME280;11164;48.818;2.322;2023-03-15T05:31:53;100775.56;;;7.26;40.83
22000;BME280;11164;48.818;2.322;2023-03-15T05:34:18;100775.19;;;7.38;40.45
22000;BME280;11164;48.818;2.322;2023-03-15T05:36:44;100761.94;;;7.44;40.20
22000;BME280;11164;48.818;2.322;2023-03-15T05:39:09;100778.84;;;7.45;40.22
22000;BME280;11164;48.818;2.322;2023-03-15T05:41:36;100768.91;;;7.54;40.11
22000;BME280;11164;48.818;2.322;2023-03-15T05:44:01;100782.34;;;7.54;40.13
22000;BME280;11164;48.818;2.322;2023-03-15T05:46:27;100787.72;;;7.54;40.34
22000;BME280;11164;48.818;2.322;2023-03-15T05:48:52;100778.91;;;7.68;39.71
22000;BME280;11164;48.818;2.322;2023-03-15T05:51:18;100780.78;;;7.67;40.08
22000;BME280;11164;48.818;2.322;2023-03-15T05:53:44;100780.94;;;7.66;39.85
22000;BME280;11164;48.818;2.322;2023-03-15T05:56:09;100784.72;;;7.48;40.34
22000;BME280;11164;48.818;2.322;2023-03-15T05:58:34;100792.28;;;7.37;40.54
22000;BME280;11164;48.818;2.322;2023-03-15T06:01:01;100799.69;;;7.35;40.71
22000;BME280;11164;48.818;2.322;2023-03-15T06:03:28;100803.00;;;7.37;40.25
22000;BME280;11164;48.818;2.322;2023-03-15T06:05:55;100804.19;;;7.42;40.21
22000;BME280;11164;48.818;2.322;2023-03-15T06:08:20;100802.13;;;7.53;40.19
22000;BME280;11164;48.818;2.322;2023-03-15T06:10:46;100811.28;;;7.66;40.13
22000;BME280;11164;48.818;2.322;2023-03-15T06:13:11;100810.13;;;7.69;39.96
22000;BME280;11164;48.818;2.322;2023-03-15T06:15:36;100802.09;;;7.61;40.34
22000;BME280;11164;48.818;2.322;2023-03-15T06:18:02;100809.22;;;7.77;40.10
22000;BME280;11164;48.818;2.322;2023-03-15T06:20:27;100803.66;;;7.86;39.99
22000;BME280;11164;48.818;2.322;2023-03-15T06:22:53;100806.84;;;7.82;39.87
22000;BME280;11164;48.818;2.322;2023-03-15T06:25:18;100801.97;;;7.85;40.03
22000;BME280;11164;48.818;2.322;2023-03-15T06:27:44;100813.34;;;8.04;39.62
22000;BME280;11164;48.818;2.322;2023-03-15T06:30:09;100813.28;;;8.12;39.65
22000;BME280;11164;48.818;2.322;2023-03-15T06:32:35;100820.63;;;8.18;39.91
22000;BME280;11164;48.818;2.322;2023-03-15T06:35:00;100809.47;;;8.30;39.72
22000;BME280;11164;48.818;2.322;2023-03-15T06:37:26;100812.16;;;8.30;40.06
22000;BME280;11164;48.818;2.322;2023-03-15T06:39:51;100820.50;;;8.43;39.82
22000;BME280;11164;48.818;2.322;2023-03-15T06:42:18;100793.78;;;8.41;39.63
22000;BME280;11164;48.818;2.322;2023-03-15T06:44:43;100819.25;;;8.69;39.60
22000;BME280;11164;48.818;2.322;2023-03-15T06:47:10;100819.38;;;8.75;39.70
22000;BME280;11164;48.818;2.322;2023-03-15T06:49:35;100804.84;;;8.85;39.77
22000;BME280;11164;48.818;2.322;2023-03-15T06:52:02;100815.78;;;8.83;39.85
22000;BME280;11164;48.818;2.322;2023-03-15T06:54:28;100827.59;;;8.97;39.64
22000;BME280;11164;48.818;2.322;2023-03-15T06:56:54;100826.56;;;8.98;39.79
22000;BME280;11164;48.818;2.322;2023-03-15T06:59:19;100819.66;;;9.18;39.59
22000;BME280;11164;48.818;2.322;2023-03-15T07:01:45;100827.38;;;9.36;39.46
22000;BME280;11164;48.818;2.322;2023-03-15T07:04:10;100826.00;;;9.55;39.11
22000;BME280;11164;48.818;2.322;2023-03-15T07:06:36;100825.06;;;9.48;39.27
22000;BME280;11164;48.818;2.322;2023-03-15T07:09:02;100830.75;;;9.68;39.28
22000;BME280;11164;48.818;2.322;2023-03-15T07:11:28;100832.47;;;9.91;38.79
22000;BME280;11164;48.818;2.322;2023-03-15T07:13:53;100838.66;;;10.06;38.83
22000;BME280;11164;48.818;2.322;2023-03-15T07:16:19;100841.75;;;10.03;38.89
22000;BME280;11164;48.818;2.322;2023-03-15T07:18:44;100844.25;;;10.05;38.96
22000;BME280;11164;48.818;2.322;2023-03-15T07:21:10;100835.84;;;10.15;39.00
22000;BME280;11164;48.818;2.322;2023-03-15T07:23:35;100835.63;;;10.31;38.96
22000;BME280;11164;48.818;2.322;2023-03-15T07:26:00;100847.38;;;10.45;38.71
22000;BME280;11164;48.818;2.322;2023-03-15T07:28:26;100850.88;;;10.24;39.25
22000;BME280;11164;48.818;2.322;2023-03-15T07:30:59;100852.41;;;10.11;39.60
22000;BME280;11164;48.818;2.322;2023-03-15T07:33:26;100856.47;;;10.07;39.73
22000;BME280;11164;48.818;2.322;2023-03-15T07:35:52;100859.34;;;10.21;39.51
22000;BME280;11164;48.818;2.322;2023-03-15T07:38:18;100863.63;;;10.15;39.70
22000;BME280;11164;48.818;2.322;2023-03-15T07:40:44;100860.22;;;10.06;40.04
22000;BME280;11164;48.818;2.322;2023-03-15T07:43:10;100872.44;;;10.24;39.95
22000;BME280;11164;48.818;2.322;2023-03-15T07:45:35;100873.88;;;10.41;39.35
22000;BME280;11164;48.818;2.322;2023-03-15T07:48:00;100870.22;;;10.49;39.66
22000;BME280;11164;48.818;2.322;2023-03-15T07:50:26;100876.06;;;10.67;39.19
22000;BME280;11164;48.818;2.322;2023-03-15T07:52:51;100880.41;;;10.68;39.29
22000;BME280;11164;48.818;2.322;2023-03-15T07:55:17;100868.66;;;10.76;39.32
22000;BME280;11164;48.818;2.322;2023-03-15T07:57:42;100871.16;;;10.78;39.13
22000;BME280;11164;48.818;2.322;2023-03-15T08:00:08;100875.88;;;10.54;39.67
22000;BME280;11164;48.818;2.322;2023-03-15T08:02:36;100883.31;;;10.67;39.68
22000;BME280;11164;48.818;2.322;2023-03-15T08:05:02;100878.84;;;11.02;39.13
22000;BME280;11164;48.818;2.322;2023-03-15T08:07:28;100883.47;;;11.09;39.17
22000;BME280;11164;48.818;2.322;2023-03-15T08:09:54;100882.59;;;11.30;38.76
22000;BME280;11164;48.818;2.322;2023-03-15T08:12:19;100885.81;;;11.47;38.84
22000;BME280;11164;48.818;2.322;2023-03-15T08:14:45;100893.38;;;11.58;38.56
22000;BME280;11164;48.818;2.322;2023-03-15T08:17:10;100878.56;;;11.47;38.67
22000;BME280;11164;48.818;2.322;2023-03-15T08:19:37;100901.47;;;11.58;38.77
22000;BME280;11164;48.818;2.322;2023-03-15T08:22:03;100898.19;;;11.62;38.73
22000;BME280;11164;48.818;2.322;2023-03-15T08:24:29;100901.53;;;11.65;38.86
22000;BME280;11164;48.818;2.322;2023-03-15T08:26:55;100901.72;;;11.63;39.15
22000;BME280;11164;48.818;2.322;2023-03-15T08:29:20;100903.56;;;11.56;39.15
22000;BME280;11164;48.818;2.322;2023-03-15T08:31:45;100899.69;;;11.37;39.37
22000;BME280;11164;48.818;2.322;2023-03-15T08:34:11;100913.22;;;11.72;38.95
22000;BME280;11164;48.818;2.322;2023-03-15T08:36:36;100909.53;;;11.79;38.95
22000;BME280;11164;48.818;2.322;2023-03-15T08:39:02;100899.38;;;11.88;38.74
22000;BME280;11164;48.818;2.322;2023-03-15T08:41:30;100911.34;;;12.00;38.69
22000;BME280;11164;48.818;2.322;2023-03-15T08:43:55;100912.44;;;12.19;38.52
22000;BME280;11164;48.818;2.322;2023-03-15T08:46:21;100912.88;;;12.30;38.22
22000;BME280;11164;48.818;2.322;2023-03-15T08:48:46;100919.94;;;12.24;38.54
22000;BME280;11164;48.818;2.322;2023-03-15T08:51:12;100915.66;;;12.50;38.21
22000;BME280;11164;48.818;2.322;2023-03-15T08:53:37;100910.03;;;12.45;38.44
22000;BME280;11164;48.818;2.322;2023-03-15T08:56:03;100926.81;;;12.27;38.67
22000;BME280;11164;48.818;2.322;2023-03-15T08:58:28;100929.53;;;11.85;39.07
22000;BME280;11164;48.818;2.322;2023-03-15T09:00:54;100923.25;;;11.78;39.23
22000;BME280;11164;48.818;2.322;2023-03-15T09:03:21;100934.47;;;11.75;39.25
22000;BME280;11164;48.818;2.322;2023-03-15T09:05:48;100928.47;;;11.86;39.04
22000;BME280;11164;48.818;2.322;2023-03-15T09:08:14;100932.19;;;12.20;38.78
22000;BME280;11164;48.818;2.322;2023-03-15T09:10:42;100930.41;;;11.92;38.94
22000;BME280;11164;48.818;2.322;2023-03-15T09:13:07;100932.91;;;11.94;39.14
22000;BME280;11164;48.818;2.322;2023-03-15T09:15:32;100939.09;;;11.88;39.09
22000;BME280;11164;48.818;2.322;2023-03-15T09:17:58;100944.63;;;12.08;38.79
22000;BME280;11164;48.818;2.322;2023-03-15T09:20:23;100952.69;;;12.43;38.33
22000;BME280;11164;48.818;2.322;2023-03-15T09:22:55;100943.22;;;12.18;38.75
22000;BME280;11164;48.818;2.322;2023-03-15T09:25:22;100953.09;;;12.46;38.60
22000;BME280;11164;48.818;2.322;2023-03-15T09:27:47;100941.69;;;12.51;38.47
22000;BME280;11164;48.818;2.322;2023-03-15T09:30:13;100942.09;;;12.61;38.44
22000;BME280;11164;48.818;2.322;2023-03-15T09:32:39;100944.59;;;12.56;38.61
22000;BME280;11164;48.818;2.322;2023-03-15T09:35:07;100941.75;;;12.78;38.43
22000;BME280;11164;48.818;2.322;2023-03-15T09:37:34;100927.88;;;13.14;38.01
22000;BME280;11164;48.818;2.322;2023-03-15T09:39:59;100923.50;;;13.46;37.30
22000;BME280;11164;48.818;2.322;2023-03-15T09:45:19;100942.88;;;13.37;37.46
22000;BME280;11164;48.818;2.322;2023-03-15T09:48:08;100940.78;;;13.05;36.56
22000;BME280;11164;48.818;2.322;2023-03-15T09:50:44;100944.97;;;13.28;37.94
22000;BME280;11164;48.818;2.322;2023-03-15T09:53:57;100941.63;;;13.46;35.53
22000;BME280;11164;48.818;2.322;2023-03-15T09:56:24;100936.56;;;13.96;37.12
22000;BME280;11164;48.818;2.322;2023-03-15T09:58:56;100921.56;;;13.74;36.35
22000;BME280;11164;48.818;2.322;2023-03-15T10:01:28;100930.75;;;13.73;37.18
22000;BME280;11164;48.818;2.322;2023-03-15T10:03:55;100945.16;;;13.53;37.97
22000;BME280;11164;48.818;2.322;2023-03-15T10:08:56;100939.06;;;13.98;36.25
22000;BME280;11164;48.818;2.322;2023-03-15T10:14:20;100944.06;;;14.01;37.16
22000;BME280;11164;48.818;2.322;2023-03-15T10:16:50;100943.13;;;14.27;37.04
22000;BME280;11164;48.818;2.322;2023-03-15T10:19:31;100934.88;;;14.54;36.63
22000;BME280;11164;48.818;2.322;2023-03-15T10:27:27;100935.22;;;14.25;36.61
22000;BME280;11164;48.818;2.322;2023-03-15T10:29:57;100929.25;;;14.49;36.66
22000;BME280;11164;48.818;2.322;2023-03-15T10:32:28;100930.50;;;14.91;36.01
22000;BME280;11164;48.818;2.322;2023-03-15T10:34:56;100927.81;;;15.42;35.48
22000;BME280;11164;48.818;2.322;2023-03-15T10:37:23;100925.09;;;15.16;35.81
22000;BME280;11164;48.818;2.322;2023-03-15T10:39:53;100923.97;;;14.99;35.74
22000;BME280;11164;48.818;2.322;2023-03-15T10:42:45;100916.06;;;15.23;33.05
22000;BME280;11164;48.818;2.322;2023-03-15T10:47:44;100911.22;;;16.12;34.66
22000;BME280;11164;48.818;2.322;2023-03-15T10:50:17;100915.13;;;16.35;33.76
22000;BME280;11164;48.818;2.322;2023-03-15T10:52:48;100916.16;;;16.52;33.84
22000;BME280;11164;48.818;2.322;2023-03-15T10:55:19;100906.22;;;16.09;34.56
22000;BME280;11164;48.818;2.322;2023-03-15T10:57:55;100910.22;;;16.25;33.81
22000;BME280;11164;48.818;2.322;2023-03-15T11:00:29;100911.59;;;16.16;33.81
22000;BME280;11164;48.818;2.322;2023-03-15T11:03:12;100910.59;;;16.10;31.35
22000;BME280;11164;48.818;2.322;2023-03-15T11:05:42;100914.44;;;15.40;34.71
22000;BME280;11164;48.818;2.322;2023-03-15T11:08:17;100910.31;;;15.37;32.01
22000;BME280;11164;48.818;2.322;2023-03-15T11:10:44;100911.91;;;15.20;34.99
22000;BME280;11164;48.818;2.322;2023-03-15T11:13:17;100921.41;;;14.72;35.06
22000;BME280;11164;48.818;2.322;2023-03-15T11:15:59;100923.78;;;14.55;30.75
22000;BME280;11164;48.818;2.322;2023-03-15T11:20:56;100901.81;;;15.27;33.79
22000;BME280;11164;48.818;2.322;2023-03-15T11:23:31;100911.13;;;15.82;32.83
22000;BME280;11164;48.818;2.322;2023-03-15T11:25:58;100917.59;;;16.36;32.85
22000;BME280;11164;48.818;2.322;2023-03-15T11:28:27;100910.41;;;15.93;33.18
22000;BME280;11164;48.818;2.322;2023-03-15T11:30:56;100902.97;;;15.13;34.21
22000;BME280;11164;48.818;2.322;2023-03-15T11:33:54;100917.63;;;14.35;32.16
22000;BME280;11164;48.818;2.322;2023-03-15T11:36:24;100908.09;;;14.64;34.48
22000;BME280;11164;48.818;2.322;2023-03-15T11:38:50;100902.75;;;14.89;33.95
22000;BME280;11164;48.818;2.322;2023-03-15T11:46:47;100921.44;;;14.66;31.25
22000;BME280;11164;48.818;2.322;2023-03-15T11:49:18;100919.91;;;14.76;33.17
22000;BME280;11164;48.818;2.322;2023-03-15T11:51:48;100924.16;;;14.66;33.41
22000;BME280;11164;48.818;2.322;2023-03-15T11:54:16;100922.41;;;14.85;33.17
22000;BME280;11164;48.818;2.322;2023-03-15T11:59:09;100921.38;;;14.79;32.94
22000;BME280;11164;48.818;2.322;2023-03-15T12:01:42;100927.56;;;14.54;30.81
22000;BME280;11164;48.818;2.322;2023-03-15T12:06:58;100911.50;;;14.14;32.16
22000;BME280;11164;48.818;2.322;2023-03-15T12:17:43;100914.78;;;15.00;31.38
22000;BME280;11164;48.818;2.322;2023-03-15T12:25:28;100919.28;;;14.42;29.27
22000;BME280;11164;48.818;2.322;2023-03-15T12:27:55;100914.66;;;14.50;31.18
22000;BME280;11164;48.818;2.322;2023-03-15T12:30:31;100903.88;;;14.75;27.76
22000;BME280;11164;48.818;2.322;2023-03-15T12:32:58;100915.03;;;14.92;30.71
22000;BME280;11164;48.818;2.322;2023-03-15T12:35:31;100905.41;;;15.21;28.24
22000;BME280;11164;48.818;2.322;2023-03-15T12:37:58;100905.88;;;14.54;31.13
22000;BME280;11164;48.818;2.322;2023-03-15T12:40:38;100900.31;;;14.74;29.86
22000;BME280;11164;48.818;2.322;2023-03-15T12:43:04;100885.50;;;15.02;30.35
22000;BME280;11164;48.818;2.322;2023-03-15T12:45:35;100876.63;;;15.82;29.35
22000;BME280;11164;48.818;2.322;2023-03-15T12:53:20;100875.03;;;16.72;27.03
22000;BME280;11164;48.818;2.322;2023-03-15T12:55:48;100866.44;;;16.57;29.24
22000;BME280;11164;48.818;2.322;2023-03-15T12:58:16;100867.34;;;16.20;29.30
22000;BME280;11164;48.818;2.322;2023-03-15T13:00:42;100875.22;;;15.73;29.65
22000;BME280;11164;48.818;2.322;2023-03-15T13:03:34;100881.81;;;16.02;23.80
22000;BME280;11164;48.818;2.322;2023-03-15T13:08:30;100874.63;;;17.22;27.58
22000;BME280;11164;48.818;2.322;2023-03-15T13:11:23;100880.91;;;18.23;22.32
22000;BME280;11164;48.818;2.322;2023-03-15T13:16:43;100857.06;;;16.71;25.87
22000;BME280;11164;48.818;2.322;2023-03-15T13:24:59;100862.72;;;15.90;27.64
22000;BME280;11164;48.818;2.322;2023-03-15T13:27:58;100862.13;;;16.07;24.27
22000;BME280;11164;48.818;2.322;2023-03-15T13:31:01;100858.72;;;16.42;23.08
22000;BME280;11164;48.818;2.322;2023-03-15T13:33:34;100845.59;;;16.50;28.51
22000;BME280;11164;48.818;2.322;2023-03-15T13:36:04;100844.75;;;16.50;28.08
22000;BME280;11164;48.818;2.322;2023-03-15T13:41:15;100851.63;;;16.22;26.85
22000;BME280;11164;48.818;2.322;2023-03-15T13:43:41;100854.84;;;16.31;28.41
22000;BME280;11164;48.818;2.322;2023-03-15T13:46:07;100849.16;;;16.21;28.48
22000;BME280;11164;48.818;2.322;2023-03-15T13:48:39;100853.59;;;16.03;26.89
22000;BME280;11164;48.818;2.322;2023-03-15T13:51:26;100850.13;;;16.26;25.51
22000;BME280;11164;48.818;2.322;2023-03-15T13:53:55;100845.47;;;16.45;27.82
22000;BME280;11164;48.818;2.322;2023-03-15T13:56:29;100848.00;;;16.28;27.02
22000;BME280;11164;48.818;2.322;2023-03-15T13:58:55;100845.78;;;15.70;28.47
22000;BME280;11164;48.818;2.322;2023-03-15T14:01:22;100842.91;;;15.46;28.50
22000;BME280;11164;48.818;2.322;2023-03-15T14:03:55;100836.19;;;15.67;27.83
22000;BME280;11164;48.818;2.322;2023-03-15T14:06:24;100838.63;;;15.94;27.97
22000;BME280;11164;48.818;2.322;2023-03-15T14:08:53;100836.59;;;15.89;27.88